sensor_id;sensor_type;location;lat;lon;timestamp;temperature;humidity
58582;DHT22;44361;51.476;5.700;2023-12-20T00:02:14;6.90;99.90
58582;DHT22;44361;51.476;5.700;2023-12-20T00:04:39;6.80;99.90
58582;DHT22;44361;51.476;5.700;2023-12-20T00:07:05;6.80;99.90
58582;DHT22;44361;51.476;5.700;2023-12-20T00:09:30;6.80;99.90
58582;DHT22;44361;51.476;5.700;2023-12-20T00:11:56;6.70;99.90
58582;DHT22;44361;51.476;5.700;2023-12-20T00:14:22;6.70;99.90
58582;DHT22;44361;51.476;5.700;2023-12-20T00:16:47;6.60;99.90
58582;DHT22;44361;51.476;5.700;2023-12-20T00:19:13;6.70;99.90
58582;DHT22;44361;51.476;5.700;2023-12-20T00:21:38;6.50;99.90
58582;DHT22;44361;51.476;5.700;2023-12-20T00:24:04;6.40;99.90
58582;DHT22;44361;51.476;5.700;2023-12-20T00:26:30;6.30;99.90
58582;DHT22;44361;51.476;5.700;2023-12-20T00:28:56;6.20;99.90
58582;DHT22;44361;51.476;5.700;2023-12-20T00:31:21;6.20;99.90
58582;DHT22;44361;51.476;5.700;2023-12-20T00:33:47;6.20;99.90
58582;DHT22;44361;51.476;5.700;2023-12-20T00:36:12;6.20;99.90
58582;DHT22;44361;51.476;5.700;2023-12-20T00:38:38;6.20;99.90
58582;DHT22;44361;51.476;5.700;2023-12-20T00:41:03;6.20;99.90
58582;DHT22;44361;51.476;5.700;2023-12-20T00:43:29;6.20;99.90
58582;DHT22;44361;51.476;5.700;2023-12-20T00:45:55;6.10;99.90
58582;DHT22;44361;51.476;5.700;2023-12-20T00:48:21;6.00;99.90
58582;DHT22;44361;51.476;5.700;2023-12-20T00:50:46;6.00;99.90
58582;DHT22;44361;51.476;5.700;2023-12-20T00:53:12;6.00;99.90
58582;DHT22;44361;51.476;5.700;2023-12-20T00:55:37;5.90;99.90
58582;DHT22;44361;51.476;5.700;2023-12-20T00:58:03;5.90;99.90
58582;DHT22;44361;51.476;5.700;2023-12-20T01:00:29;5.80;99.90
58582;DHT22;44361;51.476;5.700;2023-12-20T01:02:54;5.70;99.90
58582;DHT22;44361;51.476;5.700;2023-12-20T01:05:20;5.70;99.90
58582;DHT22;44361;51.476;5.700;2023-12-20T01:07:48;5.70;99.90
58582;DHT22;44361;51.476;5.700;2023-12-20T01:10:14;5.60;99.90
58582;DHT22;44361;51.476;5.700;2023-12-20T01:12:40;5.60;99.90
58582;DHT22;44361;51.476;5.700;2023-12-20T01:15:06;5.50;99.90
58582;DHT22;44361;51.476;5.700;2023-12-20T01:17:31;5.50;99.90
58582;DHT22;44361;51.476;5.700;2023-12-20T01:19:57;5.40;99.90
58582;DHT22;44361;51.476;5.700;2023-12-20T01:22:23;5.40;99.90
58582;DHT22;44361;51.476;5.700;2023-12-20T01:24:49;5.40;99.90
58582;DHT22;44361;51.476;5.700;2023-12-20T01:27:14;5.40;99.90
58582;DHT22;44361;51.476;5.700;2023-12-20T01:29:40;5.40;99.90
58582;DHT22;44361;51.476;5.700;2023-12-20T01:32:06;5.40;99.90
58582;DHT22;44361;51.476;5.700;2023-12-20T01:34:32;5.40;99.90
58582;DHT22;44361;51.476;5.700;2023-12-20T01:36:57;5.30;99.90
58582;DHT22;44361;51.476;5.700;2023-12-20T01:39:23;5.30;99.90
58582;DHT22;44361;51.476;5.700;2023-12-20T01:41:48;5.40;99.90
58582;DHT22;44361;51.476;5.700;2023-12-20T01:44:14;5.30;99.90
58582;DHT22;44361;51.476;5.700;2023-12-20T01:46:39;5.40;99.90
58582;DHT22;44361;51.476;5.700;2023-12-20T01:49:06;5.40;99.90
58582;DHT22;44361;51.476;5.700;2023-12-20T01:51:32;5.40;99.90
58582;DHT22;44361;51.476;5.700;2023-12-20T01:53:59;5.40;99.90
58582;DHT22;44361;51.476;5.700;2023-12-20T01:56:26;5.40;99.90
58582;DHT22;44361;51.476;5.700;2023-12-20T01:58:55;5.50;99.90
58582;DHT22;44361;51.476;5.700;2023-12-20T02:01:21;5.60;99.90
58582;DHT22;44361;51.476;5.700;2023-12-20T02:03:47;5.70;99.90
58582;DHT22;44361;51.476;5.700;2023-12-20T02:06:13;5.70;99.90
58582;DHT22;44361;51.476;5.700;2023-12-20T02:08:38;5.80;99.90
58582;DHT22;44361;51.476;5.700;2023-12-20T02:11:04;5.70;99.90
58582;DHT22;44361;51.476;5.700;2023-12-20T02:13:30;5.60;99.90
58582;DHT22;44361;51.476;5.700;2023-12-20T02:15:56;5.60;99.90
58582;DHT22;44361;51.476;5.700;2023-12-20T02:18:22;5.60;99.90
58582;DHT22;44361;51.476;5.700;2023-12-20T02:20:48;5.60;99.90
58582;DHT22;44361;51.476;5.700;2023-12-20T02:23:13;5.50;99.90
58582;DHT22;44361;51.476;5.700;2023-12-20T02:25:39;5.50;99.90
58582;DHT22;44361;51.476;5.700;2023-12-20T02:28:05;5.40;99.90
58582;DHT22;44361;51.476;5.700;2023-12-20T02:30:32;5.50;99.90
58582;DHT22;44361;51.476;5.700;2023-12-20T02:32:59;5.50;99.90
58582;DHT22;44361;51.476;5.700;2023-12-20T02:35:25;5.40;99.90
58582;DHT22;44361;51.476;5.700;2023-12-20T02:37:50;5.40;99.90
58582;DHT22;44361;51.476;5.700;2023-12-20T02:40:16;5.40;99.90
58582;DHT22;44361;51.476;5.700;2023-12-20T02:42:42;5.40;99.90
58582;DHT22;44361;51.476;5.700;2023-12-20T02:45:08;5.50;99.90
58582;DHT22;44361;51.476;5.700;2023-12-20T02:47:33;5.50;99.90
58582;DHT22;44361;51.476;5.700;2023-12-20T02:49:59;5.40;99.90
58582;DHT22;44361;51.476;5.700;2023-12-20T02:52:24;5.40;99.90
58582;DHT22;44361;51.476;5.700;2023-12-20T02:54:50;5.40;99.90
58582;DHT22;44361;51.476;5.700;2023-12-20T02:57:16;5.40;99.90
58582;DHT22;44361;51.476;5.700;2023-12-20T02:59:41;5.40;99.90
58582;DHT22;44361;51.476;5.700;2023-12-20T03:02:07;5.50;99.90
58582;DHT22;44361;51.476;5.700;2023-12-20T03:04:32;5.40;99.90
58582;DHT22;44361;51.476;5.700;2023-12-20T03:06:58;5.40;99.90
58582;DHT22;44361;51.476;5.700;2023-12-20T03:09:23;5.40;99.90
58582;DHT22;44361;51.476;5.700;2023-12-20T03:11:49;5.50;99.90
58582;DHT22;44361;51.476;5.700;2023-12-20T03:14:14;5.50;99.90
58582;DHT22;44361;51.476;5.700;2023-12-20T03:16:40;5.50;99.90
58582;DHT22;44361;51.476;5.700;2023-12-20T03:19:05;5.60;99.90
58582;DHT22;44361;51.476;5.700;2023-12-20T03:21:31;5.50;99.90
58582;DHT22;44361;51.476;5.700;2023-12-20T03:23:56;5.50;99.90
58582;DHT22;44361;51.476;5.700;2023-12-20T03:26:22;5.60;99.90
58582;DHT22;44361;51.476;5.700;2023-12-20T03:28:48;5.70;99.90
58582;DHT22;44361;51.476;5.700;2023-12-20T03:31:14;5.70;99.90
58582;DHT22;44361;51.476;5.700;2023-12-20T03:33:39;5.70;99.90
58582;DHT22;44361;51.476;5.700;2023-12-20T03:36:06;5.70;99.90
58582;DHT22;44361;51.476;5.700;2023-12-20T03:38:31;5.70;99.90
58582;DHT22;44361;51.476;5.700;2023-12-20T03:40:57;5.70;99.90
58582;DHT22;44361;51.476;5.700;2023-12-20T03:43:22;5.60;99.90
58582;DHT22;44361;51.476;5.700;2023-12-20T03:45:48;5.60;99.90
58582;DHT22;44361;51.476;5.700;2023-12-20T03:48:13;5.50;99.90
58582;DHT22;44361;51.476;5.700;2023-12-20T03:50:39;5.50;99.90
58582;DHT22;44361;51.476;5.700;2023-12-20T03:53:04;5.50;99.90
58582;DHT22;44361;51.476;5.700;2023-12-20T03:55:30;5.40;99.90
58582;DHT22;44361;51.476;5.700;2023-12-20T03:57:55;5.30;99.90
58582;DHT22;44361;51.476;5.700;2023-12-20T04:00:21;5.40;99.90
58582;DHT22;44361;51.476;5.700;2023-12-20T04:02:46;5.50;99.90
58582;DHT22;44361;51.476;5.700;2023-12-20T04:05:12;5.60;99.90
58582;DHT22;44361;51.476;5.700;2023-12-20T04:07:38;5.70;99.90
58582;DHT22;44361;51.476;5.700;2023-12-20T04:10:04;5.70;99.90
58582;DHT22;44361;51.476;5.700;2023-12-20T04:12:30;5.70;99.90
58582;DHT22;44361;51.476;5.700;2023-12-20T04:14:57;5.70;99.90
58582;DHT22;44361;51.476;5.700;2023-12-20T04:17:22;5.80;99.90
58582;DHT22;44361;51.476;5.700;2023-12-20T04:19:49;5.80;99.90
58582;DHT22;44361;51.476;5.700;2023-12-20T04:22:15;5.80;99.90
58582;DHT22;44361;51.476;5.700;2023-12-20T04:24:40;5.80;99.90
58582;DHT22;44361;51.476;5.700;2023-12-20T04:27:07;5.80;99.90
58582;DHT22;44361;51.476;5.700;2023-12-20T04:29:33;5.80;99.90
58582;DHT22;44361;51.476;5.700;2023-12-20T04:31:59;5.90;99.90
58582;DHT22;44361;51.476;5.700;2023-12-20T04:34:24;5.90;99.90
58582;DHT22;44361;51.476;5.700;2023-12-20T04:36:50;5.90;99.90
58582;DHT22;44361;51.476;5.700;2023-12-20T04:39:16;5.90;99.90
58582;DHT22;44361;51.476;5.700;2023-12-20T04:41:41;5.90;99.90
58582;DHT22;44361;51.476;5.700;2023-12-20T04:44:08;6.00;99.90
58582;DHT22;44361;51.476;5.700;2023-12-20T04:46:33;6.00;99.90
58582;DHT22;44361;51.476;5.700;2023-12-20T04:48:59;6.00;99.90
58582;DHT22;44361;51.476;5.700;2023-12-20T04:51:24;6.00;99.90
58582;DHT22;44361;51.476;5.700;2023-12-20T04:53:50;6.10;99.90
58582;DHT22;44361;51.476;5.700;2023-12-20T04:56:15;6.10;99.90
58582;DHT22;44361;51.476;5.700;2023-12-20T04:58:42;6.10;99.90
58582;DHT22;44361;51.476;5.700;2023-12-20T05:01:08;6.10;99.90
58582;DHT22;44361;51.476;5.700;2023-12-20T05:03:34;6.10;99.90
58582;DHT22;44361;51.476;5.700;2023-12-20T05:06:00;6.10;99.90
58582;DHT22;44361;51.476;5.700;2023-12-20T05:08:25;6.10;99.90
58582;DHT22;44361;51.476;5.700;2023-12-20T05:10:54;6.10;99.90
58582;DHT22;44361;51.476;5.700;2023-12-20T05:13:19;6.10;99.90
58582;DHT22;44361;51.476;5.700;2023-12-20T05:15:45;6.10;99.90
58582;DHT22;44361;51.476;5.700;2023-12-20T05:18:11;6.10;99.90
58582;DHT22;44361;51.476;5.700;2023-12-20T05:20:36;6.10;99.90
58582;DHT22;44361;51.476;5.700;2023-12-20T05:23:02;6.20;99.90
58582;DHT22;44361;51.476;5.700;2023-12-20T05:25:28;6.20;99.90
58582;DHT22;44361;51.476;5.700;2023-12-20T05:27:53;6.20;99.90
58582;DHT22;44361;51.476;5.700;2023-12-20T05:30:19;6.20;99.90
58582;DHT22;44361;51.476;5.700;2023-12-20T05:32:44;6.20;99.90
58582;DHT22;44361;51.476;5.700;2023-12-20T05:35:10;6.30;99.90
58582;DHT22;44361;51.476;5.700;2023-12-20T05:37:36;6.30;99.90
58582;DHT22;44361;51.476;5.700;2023-12-20T05:40:01;6.30;99.90
58582;DHT22;44361;51.476;5.700;2023-12-20T05:42:27;6.30;99.90
58582;DHT22;44361;51.476;5.700;2023-12-20T05:44:52;6.30;99.90
58582;DHT22;44361;51.476;5.700;2023-12-20T05:47:18;6.30;99.90
58582;DHT22;44361;51.476;5.700;2023-12-20T05:49:44;6.20;99.90
58582;DHT22;44361;51.476;5.700;2023-12-20T05:52:09;6.30;99.90
58582;DHT22;44361;51.476;5.700;2023-12-20T05:54:35;6.40;99.90
58582;DHT22;44361;51.476;5.700;2023-12-20T05:57:00;6.40;99.90
58582;DHT22;44361;51.476;5.700;2023-12-20T05:59:26;6.30;99.90
58582;DHT22;44361;51.476;5.700;2023-12-20T06:01:52;6.40;99.90
58582;DHT22;44361;51.476;5.700;2023-12-20T06:04:17;6.40;99.90
58582;DHT22;44361;51.476;5.700;2023-12-20T06:06:43;6.50;99.90
58582;DHT22;44361;51.476;5.700;2023-12-20T06:09:09;6.50;99.90
58582;DHT22;44361;51.476;5.700;2023-12-20T06:11:35;6.50;99.90
58582;DHT22;44361;51.476;5.700;2023-12-20T06:14:01;6.50;99.90
58582;DHT22;44361;51.476;5.700;2023-12-20T06:16:26;6.40;99.90
58582;DHT22;44361;51.476;5.700;2023-12-20T06:18:52;6.40;99.90
58582;DHT22;44361;51.476;5.700;2023-12-20T06:21:17;6.40;99.90
58582;DHT22;44361;51.476;5.700;2023-12-20T06:23:43;6.40;99.90
58582;DHT22;44361;51.476;5.700;2023-12-20T06:26:09;6.40;99.90
58582;DHT22;44361;51.476;5.700;2023-12-20T06:28:34;6.40;99.90
58582;DHT22;44361;51.476;5.700;2023-12-20T06:31:00;6.40;99.90
58582;DHT22;44361;51.476;5.700;2023-12-20T06:33:26;6.50;99.90
58582;DHT22;44361;51.476;5.700;2023-12-20T06:35:52;6.50;99.90
58582;DHT22;44361;51.476;5.700;2023-12-20T06:38:18;6.50;99.90
58582;DHT22;44361;51.476;5.700;2023-12-20T06:40:44;6.50;99.90
58582;DHT22;44361;51.476;5.700;2023-12-20T06:43:10;6.50;99.90
58582;DHT22;44361;51.476;5.700;2023-12-20T06:45:35;6.40;99.90
58582;DHT22;44361;51.476;5.700;2023-12-20T06:48:01;6.40;99.90
58582;DHT22;44361;51.476;5.700;2023-12-20T06:50:27;6.40;99.90
58582;DHT22;44361;51.476;5.700;2023-12-20T06:52:53;6.20;99.90
58582;DHT22;44361;51.476;5.700;2023-12-20T06:55:18;6.20;99.90
58582;DHT22;44361;51.476;5.700;2023-12-20T06:57:44;6.10;99.90
58582;DHT22;44361;51.476;5.700;2023-12-20T07:00:11;6.10;99.90
58582;DHT22;44361;51.476;5.700;2023-12-20T07:02:37;6.10;99.90
58582;DHT22;44361;51.476;5.700;2023-12-20T07:05:03;6.20;99.90
58582;DHT22;44361;51.476;5.700;2023-12-20T07:07:29;6.20;99.90
58582;DHT22;44361;51.476;5.700;2023-12-20T07:09:55;6.20;99.90
58582;DHT22;44361;51.476;5.700;2023-12-20T07:12:20;6.20;99.90
58582;DHT22;44361;51.476;5.700;2023-12-20T07:14:46;6.20;99.90
58582;DHT22;44361;51.476;5.700;2023-12-20T07:17:12;6.30;99.90
58582;DHT22;44361;51.476;5.700;2023-12-20T07:19:39;6.20;99.90
58582;DHT22;44361;51.476;5.700;2023-12-20T07:22:05;6.20;99.90
58582;DHT22;44361;51.476;5.700;2023-12-20T07:24:31;6.20;99.90
58582;DHT22;44361;51.476;5.700;2023-12-20T07:26:57;6.20;99.90
58582;DHT22;44361;51.476;5.700;2023-12-20T07:29:22;6.30;99.90
58582;DHT22;44361;51.476;5.700;2023-12-20T07:31:48;6.30;99.90
58582;DHT22;44361;51.476;5.700;2023-12-20T07:34:13;6.30;99.90
58582;DHT22;44361;51.476;5.700;2023-12-20T07:36:39;6.30;99.90
58582;DHT22;44361;51.476;5.700;2023-12-20T07:39:05;6.30;99.90
58582;DHT22;44361;51.476;5.700;2023-12-20T07:41:30;6.30;99.90
58582;DHT22;44361;51.476;5.700;2023-12-20T07:43:56;6.30;99.90
58582;DHT22;44361;51.476;5.700;2023-12-20T07:46:22;6.30;99.90
58582;DHT22;44361;51.476;5.700;2023-12-20T07:48:48;6.30;99.90
58582;DHT22;44361;51.476;5.700;2023-12-20T07:51:14;6.40;99.90
58582;DHT22;44361;51.476;5.700;2023-12-20T07:53:40;6.40;99.90
58582;DHT22;44361;51.476;5.700;2023-12-20T07:56:25;6.40;99.90
58582;DHT22;44361;51.476;5.700;2023-12-20T07:58:51;6.40;99.90
58582;DHT22;44361;51.476;5.700;2023-12-20T08:01:17;6.40;99.90
58582;DHT22;44361;51.476;5.700;2023-12-20T08:03:43;6.40;99.90
58582;DHT22;44361;51.476;5.700;2023-12-20T08:06:09;6.40;99.90
58582;DHT22;44361;51.476;5.700;2023-12-20T08:08:34;6.50;99.90
58582;DHT22;44361;51.476;5.700;2023-12-20T08:11:00;6.40;99.90
58582;DHT22;44361;51.476;5.700;2023-12-20T08:13:26;6.50;99.90
58582;DHT22;44361;51.476;5.700;2023-12-20T08:15:52;6.50;99.90
58582;DHT22;44361;51.476;5.700;2023-12-20T08:18:18;6.50;99.90
58582;DHT22;44361;51.476;5.700;2023-12-20T08:20:44;6.50;99.90
58582;DHT22;44361;51.476;5.700;2023-12-20T08:23:09;6.60;99.90
58582;DHT22;44361;51.476;5.700;2023-12-20T08:25:35;6.60;99.90
58582;DHT22;44361;51.476;5.700;2023-12-20T08:28:02;6.70;99.90
58582;DHT22;44361;51.476;5.700;2023-12-20T08:30:28;6.70;99.90
58582;DHT22;44361;51.476;5.700;2023-12-20T08:32:55;6.70;99.90
58582;DHT22;44361;51.476;5.700;2023-12-20T08:35:20;6.80;99.90
58582;DHT22;44361;51.476;5.700;2023-12-20T08:37:46;6.80;99.90
58582;DHT22;44361;51.476;5.700;2023-12-20T08:40:12;6.80;99.90
58582;DHT22;44361;51.476;5.700;2023-12-20T08:42:37;6.80;99.90
58582;DHT22;44361;51.476;5.700;2023-12-20T08:45:03;6.80;99.90
58582;DHT22;44361;51.476;5.700;2023-12-20T08:47:29;6.90;99.90
58582;DHT22;44361;51.476;5.700;2023-12-20T08:49:55;6.80;99.90
58582;DHT22;44361;51.476;5.700;2023-12-20T08:52:24;6.80;99.90
58582;DHT22;44361;51.476;5.700;2023-12-20T08:54:52;6.80;99.90
58582;DHT22;44361;51.476;5.700;2023-12-20T08:57:20;6.80;99.90
58582;DHT22;44361;51.476;5.700;2023-12-20T08:59:47;6.70;99.90
58582;DHT22;44361;51.476;5.700;2023-12-20T09:02:14;6.70;99.90
58582;DHT22;44361;51.476;5.700;2023-12-20T09:04:39;6.80;99.90
58582;DHT22;44361;51.476;5.700;2023-12-20T09:07:05;6.80;99.90
58582;DHT22;44361;51.476;5.700;2023-12-20T09:09:30;6.80;99.90
58582;DHT22;44361;51.476;5.700;2023-12-20T09:11:57;6.80;99.90
58582;DHT22;44361;51.476;5.700;2023-12-20T09:14:23;6.90;99.90
58582;DHT22;44361;51.476;5.700;2023-12-20T09:16:49;6.90;99.90
58582;DHT22;44361;51.476;5.700;2023-12-20T09:19:16;6.80;99.90
58582;DHT22;44361;51.476;5.700;2023-12-20T09:21:42;6.80;99.90
58582;DHT22;44361;51.476;5.700;2023-12-20T09:24:07;6.90;99.90
58582;DHT22;44361;51.476;5.700;2023-12-20T09:26:34;6.90;99.90
58582;DHT22;44361;51.476;5.700;2023-12-20T09:28:59;6.80;99.90
58582;DHT22;44361;51.476;5.700;2023-12-20T09:31:25;6.90;99.90
58582;DHT22;44361;51.476;5.700;2023-12-20T09:33:51;6.90;99.90
58582;DHT22;44361;51.476;5.700;2023-12-20T09:36:16;6.90;99.90
58582;DHT22;44361;51.476;5.700;2023-12-20T09:38:42;6.90;99.90
58582;DHT22;44361;51.476;5.700;2023-12-20T09:41:07;6.90;99.90
58582;DHT22;44361;51.476;5.700;2023-12-20T09:43:37;6.90;99.90
58582;DHT22;44361;51.476;5.700;2023-12-20T09:46:05;7.00;99.90
58582;DHT22;44361;51.476;5.700;2023-12-20T09:48:31;7.00;99.90
58582;DHT22;44361;51.476;5.700;2023-12-20T09:50:58;7.00;99.90
58582;DHT22;44361;51.476;5.700;2023-12-20T09:53:24;7.10;99.90
58582;DHT22;44361;51.476;5.700;2023-12-20T09:55:58;7.10;99.90
58582;DHT22;44361;51.476;5.700;2023-12-20T09:58:26;7.10;99.90
58582;DHT22;44361;51.476;5.700;2023-12-20T10:00:53;7.20;99.90
58582;DHT22;44361;51.476;5.700;2023-12-20T10:03:23;7.20;99.90
58582;DHT22;44361;51.476;5.700;2023-12-20T10:05:52;7.20;99.90
58582;DHT22;44361;51.476;5.700;2023-12-20T10:08:21;7.30;99.90
58582;DHT22;44361;51.476;5.700;2023-12-20T10:10:47;7.30;99.90
58582;DHT22;44361;51.476;5.700;2023-12-20T10:13:13;7.30;99.90
58582;DHT22;44361;51.476;5.700;2023-12-20T10:15:38;7.30;99.90
58582;DHT22;44361;51.476;5.700;2023-12-20T10:18:05;7.30;99.90
58582;DHT22;44361;51.476;5.700;2023-12-20T10:20:31;7.30;99.90
58582;DHT22;44361;51.476;5.700;2023-12-20T10:23:00;7.30;99.90
58582;DHT22;44361;51.476;5.700;2023-12-20T10:25:26;7.30;99.90
58582;DHT22;44361;51.476;5.700;2023-12-20T10:28:13;7.30;99.90
58582;DHT22;44361;51.476;5.700;2023-12-20T10:30:39;7.30;99.90
58582;DHT22;44361;51.476;5.700;2023-12-20T10:33:06;7.30;99.90
58582;DHT22;44361;51.476;5.700;2023-12-20T10:35:33;7.40;99.90
58582;DHT22;44361;51.476;5.700;2023-12-20T10:38:02;7.40;99.90
58582;DHT22;44361;51.476;5.700;2023-12-20T10:40:29;7.40;99.90
58582;DHT22;44361;51.476;5.700;2023-12-20T10:42:56;7.40;99.90
58582;DHT22;44361;51.476;5.700;2023-12-20T10:45:22;7.40;99.90
58582;DHT22;44361;51.476;5.700;2023-12-20T10:47:49;7.40;99.90
58582;DHT22;44361;51.476;5.700;2023-12-20T10:50:15;7.40;99.90
58582;DHT22;44361;51.476;5.700;2023-12-20T10:52:42;7.40;99.90
58582;DHT22;44361;51.476;5.700;2023-12-20T10:55:10;7.40;99.90
58582;DHT22;44361;51.476;5.700;2023-12-20T10:57:36;7.40;99.90
58582;DHT22;44361;51.476;5.700;2023-12-20T11:00:03;7.40;99.90
58582;DHT22;44361;51.476;5.700;2023-12-20T11:02:33;7.40;99.90
58582;DHT22;44361;51.476;5.700;2023-12-20T11:05:49;7.40;99.90
58582;DHT22;44361;51.476;5.700;2023-12-20T11:07:55;7.40;99.90
58582;DHT22;44361;51.476;5.700;2023-12-20T11:10:43;7.40;99.90
58582;DHT22;44361;51.476;5.700;2023-12-20T11:13:23;7.40;99.90
58582;DHT22;44361;51.476;5.700;2023-12-20T11:15:50;7.50;99.90
58582;DHT22;44361;51.476;5.700;2023-12-20T11:18:16;7.50;99.90
58582;DHT22;44361;51.476;5.700;2023-12-20T11:20:42;7.50;99.90
58582;DHT22;44361;51.476;5.700;2023-12-20T11:23:08;7.50;99.90
58582;DHT22;44361;51.476;5.700;2023-12-20T11:25:48;7.50;99.90
58582;DHT22;44361;51.476;5.700;2023-12-20T11:28:21;7.60;99.90
58582;DHT22;44361;51.476;5.700;2023-12-20T11:33:17;7.60;99.90
58582;DHT22;44361;51.476;5.700;2023-12-20T11:35:46;7.60;99.90
58582;DHT22;44361;51.476;5.700;2023-12-20T11:38:13;7.60;99.90
58582;DHT22;44361;51.476;5.700;2023-12-20T11:40:41;7.60;99.90
58582;DHT22;44361;51.476;5.700;2023-12-20T11:43:07;7.60;99.90
58582;DHT22;44361;51.476;5.700;2023-12-20T11:45:33;7.50;99.90
58582;DHT22;44361;51.476;5.700;2023-12-20T11:48:04;7.40;99.90
58582;DHT22;44361;51.476;5.700;2023-12-20T11:50:30;7.40;99.90
58582;DHT22;44361;51.476;5.700;2023-12-20T11:52:56;7.40;99.90
58582;DHT22;44361;51.476;5.700;2023-12-20T11:55:22;7.30;99.90
58582;DHT22;44361;51.476;5.700;2023-12-20T11:57:50;7.30;99.90
58582;DHT22;44361;51.476;5.700;2023-12-20T12:00:16;7.30;99.90
58582;DHT22;44361;51.476;5.700;2023-12-20T12:02:42;7.30;99.90
58582;DHT22;44361;51.476;5.700;2023-12-20T12:05:07;7.30;99.90
58582;DHT22;44361;51.476;5.700;2023-12-20T12:07:36;7.30;99.90
58582;DHT22;44361;51.476;5.700;2023-12-20T12:10:02;7.30;99.90
58582;DHT22;44361;51.476;5.700;2023-12-20T12:12:29;7.20;99.90
58582;DHT22;44361;51.476;5.700;2023-12-20T12:14:55;7.20;99.90
58582;DHT22;44361;51.476;5.700;2023-12-20T12:17:23;7.20;99.90
58582;DHT22;44361;51.476;5.700;2023-12-20T12:19:48;7.20;99.90
58582;DHT22;44361;51.476;5.700;2023-12-20T12:22:14;7.10;99.90
58582;DHT22;44361;51.476;5.700;2023-12-20T12:24:43;7.10;99.90
58582;DHT22;44361;51.476;5.700;2023-12-20T12:27:09;7.10;99.90
58582;DHT22;44361;51.476;5.700;2023-12-20T12:29:36;7.20;99.90
58582;DHT22;44361;51.476;5.700;2023-12-20T12:32:05;7.20;99.90
58582;DHT22;44361;51.476;5.700;2023-12-20T12:34:31;7.20;99.90
58582;DHT22;44361;51.476;5.700;2023-12-20T12:36:57;7.20;99.90
58582;DHT22;44361;51.476;5.700;2023-12-20T12:39:24;7.20;99.90
58582;DHT22;44361;51.476;5.700;2023-12-20T12:41:56;7.20;99.90
58582;DHT22;44361;51.476;5.700;2023-12-20T12:44:22;7.10;99.90
58582;DHT22;44361;51.476;5.700;2023-12-20T12:46:50;7.20;99.90
58582;DHT22;44361;51.476;5.700;2023-12-20T12:49:16;7.30;99.90
58582;DHT22;44361;51.476;5.700;2023-12-20T12:51:42;7.20;99.90
58582;DHT22;44361;51.476;5.700;2023-12-20T12:54:09;7.30;99.90
58582;DHT22;44361;51.476;5.700;2023-12-20T12:56:35;7.30;99.90
58582;DHT22;44361;51.476;5.700;2023-12-20T12:59:01;7.30;99.90
58582;DHT22;44361;51.476;5.700;2023-12-20T13:01:27;7.30;99.90
58582;DHT22;44361;51.476;5.700;2023-12-20T13:03:52;7.40;99.90
58582;DHT22;44361;51.476;5.700;2023-12-20T13:06:18;7.40;99.90
58582;DHT22;44361;51.476;5.700;2023-12-20T13:08:43;7.40;99.90
58582;DHT22;44361;51.476;5.700;2023-12-20T13:11:09;7.40;99.90
58582;DHT22;44361;51.476;5.700;2023-12-20T13:13:35;7.50;99.90
58582;DHT22;44361;51.476;5.700;2023-12-20T13:16:01;7.50;99.90
58582;DHT22;44361;51.476;5.700;2023-12-20T13:18:26;7.50;99.90
58582;DHT22;44361;51.476;5.700;2023-12-20T13:20:52;7.60;99.90
58582;DHT22;44361;51.476;5.700;2023-12-20T13:23:17;7.70;99.90
58582;DHT22;44361;51.476;5.700;2023-12-20T13:25:43;7.80;99.90
58582;DHT22;44361;51.476;5.700;2023-12-20T13:28:11;7.80;99.90
58582;DHT22;44361;51.476;5.700;2023-12-20T13:30:36;7.90;99.90
58582;DHT22;44361;51.476;5.700;2023-12-20T13:33:02;8.00;99.90
58582;DHT22;44361;51.476;5.700;2023-12-20T13:35:28;8.00;99.90
58582;DHT22;44361;51.476;5.700;2023-12-20T13:37:53;8.10;99.90
58582;DHT22;44361;51.476;5.700;2023-12-20T13:40:19;8.00;99.90
58582;DHT22;44361;51.476;5.700;2023-12-20T13:42:45;8.10;99.90
58582;DHT22;44361;51.476;5.700;2023-12-20T13:45:11;8.00;99.90
58582;DHT22;44361;51.476;5.700;2023-12-20T13:47:36;8.00;99.90
58582;DHT22;44361;51.476;5.700;2023-12-20T13:50:03;8.00;99.90
58582;DHT22;44361;51.476;5.700;2023-12-20T13:52:29;8.10;99.90
58582;DHT22;44361;51.476;5.700;2023-12-20T13:54:55;8.00;99.90
58582;DHT22;44361;51.476;5.700;2023-12-20T13:57:20;8.00;99.90
58582;DHT22;44361;51.476;5.700;2023-12-20T13:59:46;8.00;99.90
58582;DHT22;44361;51.476;5.700;2023-12-20T14:02:11;7.90;99.90
58582;DHT22;44361;51.476;5.700;2023-12-20T14:04:37;7.90;99.90
58582;DHT22;44361;51.476;5.700;2023-12-20T14:07:04;7.90;99.90
58582;DHT22;44361;51.476;5.700;2023-12-20T14:09:30;7.90;99.90
58582;DHT22;44361;51.476;5.700;2023-12-20T14:11:55;7.90;99.90
58582;DHT22;44361;51.476;5.700;2023-12-20T14:14:21;7.90;99.90
58582;DHT22;44361;51.476;5.700;2023-12-20T14:16:47;8.00;99.90
58582;DHT22;44361;51.476;5.700;2023-12-20T14:19:12;8.00;99.90
58582;DHT22;44361;51.476;5.700;2023-12-20T14:21:38;8.00;99.90
58582;DHT22;44361;51.476;5.700;2023-12-20T14:24:03;8.00;99.90
58582;DHT22;44361;51.476;5.700;2023-12-20T14:26:30;8.00;99.90
58582;DHT22;44361;51.476;5.700;2023-12-20T14:28:56;8.00;99.90
58582;DHT22;44361;51.476;5.700;2023-12-20T14:31:22;7.90;99.90
58582;DHT22;44361;51.476;5.700;2023-12-20T14:33:49;7.90;99.90
58582;DHT22;44361;51.476;5.700;2023-12-20T14:36:16;8.00;99.90
58582;DHT22;44361;51.476;5.700;2023-12-20T14:38:43;7.90;99.90
58582;DHT22;44361;51.476;5.700;2023-12-20T14:41:09;7.90;99.90
58582;DHT22;44361;51.476;5.700;2023-12-20T14:43:34;7.90;99.90
58582;DHT22;44361;51.476;5.700;2023-12-20T14:46:00;7.90;99.90
58582;DHT22;44361;51.476;5.700;2023-12-20T14:48:25;7.90;99.90
58582;DHT22;44361;51.476;5.700;2023-12-20T14:50:53;7.90;99.90
58582;DHT22;44361;51.476;5.700;2023-12-20T14:53:19;7.80;99.90
58582;DHT22;44361;51.476;5.700;2023-12-20T14:55:45;7.80;99.90
58582;DHT22;44361;51.476;5.700;2023-12-20T14:58:11;7.90;99.90
58582;DHT22;44361;51.476;5.700;2023-12-20T15:00:37;7.90;99.90
58582;DHT22;44361;51.476;5.700;2023-12-20T15:03:03;7.90;99.90
58582;DHT22;44361;51.476;5.700;2023-12-20T15:05:30;7.90;99.90
58582;DHT22;44361;51.476;5.700;2023-12-20T15:07:56;7.80;99.90
58582;DHT22;44361;51.476;5.700;2023-12-20T15:10:22;7.80;99.90
58582;DHT22;44361;51.476;5.700;2023-12-20T15:12:47;7.80;99.90
58582;DHT22;44361;51.476;5.700;2023-12-20T15:15:13;7.90;99.90
58582;DHT22;44361;51.476;5.700;2023-12-20T15:17:39;7.90;99.90
58582;DHT22;44361;51.476;5.700;2023-12-20T15:20:05;7.80;99.90
58582;DHT22;44361;51.476;5.700;2023-12-20T15:22:30;7.80;99.90
58582;DHT22;44361;51.476;5.700;2023-12-20T15:24:59;7.90;99.90
58582;DHT22;44361;51.476;5.700;2023-12-20T15:27:24;7.80;99.90
58582;DHT22;44361;51.476;5.700;2023-12-20T15:29:50;7.80;99.90
58582;DHT22;44361;51.476;5.700;2023-12-20T15:32:17;7.90;99.90
58582;DHT22;44361;51.476;5.700;2023-12-20T15:34:44;7.90;99.90
58582;DHT22;44361;51.476;5.700;2023-12-20T15:37:10;7.90;99.90
58582;DHT22;44361;51.476;5.700;2023-12-20T15:39:36;7.90;99.90
58582;DHT22;44361;51.476;5.700;2023-12-20T15:42:01;7.90;99.90